createdAt,value
2018-12-31T00:01:30.571Z,16.23
2018-12-31T00:03:59.167Z,14.50
2018-12-31T00:06:27.734Z,14.93
2018-12-31T00:08:56.311Z,15.47
2018-12-31T00:11:24.874Z,15.93
2018-12-31T00:13:53.465Z,15.97
2018-12-31T00:16:22.024Z,15.00
2018-12-31T00:18:50.616Z,16.67
2018-12-31T00:21:19.183Z,14.60
2018-12-31T00:23:47.743Z,14.57
2018-12-31T00:26:16.337Z,14.33
2018-12-31T00:28:44.898Z,15.47
2018-12-31T00:31:13.489Z,15.63
2018-12-31T00:33:42.048Z,14.50
2018-12-31T00:36:10.634Z,14.87
2018-12-31T00:38:39.195Z,14.43
2018-12-31T00:41:07.779Z,13.83
2018-12-31T00:43:36.344Z,13.40
2018-12-31T00:46:04.936Z,12.57
2018-12-31T00:48:33.489Z,14.83
2018-12-31T00:51:02.086Z,14.57
2018-12-31T00:53:30.645Z,14.07
2018-12-31T00:55:59.238Z,14.57
2018-12-31T00:58:27.796Z,14.10
2018-12-31T01:00:56.379Z,14.10
2018-12-31T01:03:25.017Z,14.20
2018-12-31T01:05:53.605Z,14.50
2018-12-31T01:08:22.233Z,12.87
2018-12-31T01:10:50.850Z,14.33
2018-12-31T01:13:19.417Z,13.33
2018-12-31T01:15:48.002Z,13.17
2018-12-31T01:18:16.564Z,13.93
2018-12-31T01:20:45.160Z,14.30
2018-12-31T01:23:13.719Z,14.03
2018-12-31T01:25:43.267Z,13.30
2018-12-31T01:28:11.881Z,14.47
2018-12-31T01:30:40.481Z,14.77
2018-12-31T01:33:09.048Z,14.57
2018-12-31T01:35:37.637Z,14.70
2018-12-31T01:38:06.191Z,14.43
2018-12-31T01:40:34.759Z,14.50
2018-12-31T01:43:03.348Z,13.93
2018-12-31T01:45:31.912Z,15.90
2018-12-31T01:48:00.501Z,15.87
2018-12-31T01:50:29.062Z,16.17
2018-12-31T01:52:57.652Z,16.83
2018-12-31T01:55:26.216Z,15.77
2018-12-31T01:57:54.800Z,16.17
2018-12-31T02:00:23.364Z,16.97
2018-12-31T02:02:51.957Z,16.20
2018-12-31T02:05:20.520Z,16.60
2018-12-31T02:07:49.107Z,16.57
2018-12-31T02:10:17.665Z,15.83
2018-12-31T02:12:46.252Z,16.63
2018-12-31T02:15:14.817Z,15.87
2018-12-31T02:17:43.404Z,16.13
2018-12-31T02:20:11.968Z,16.13
2018-12-31T02:22:40.552Z,15.13
2018-12-31T02:25:09.181Z,16.10
2018-12-31T02:27:37.773Z,15.93
2018-12-31T02:30:06.472Z,16.77
2018-12-31T02:32:35.231Z,16.67
2018-12-31T02:35:04.061Z,15.17
2018-12-31T02:37:32.643Z,16.73
2018-12-31T02:40:01.200Z,16.13
2018-12-31T02:42:29.801Z,16.93
2018-12-31T02:44:58.362Z,15.50
2018-12-31T02:47:26.925Z,14.47
2018-12-31T02:49:55.540Z,14.63
2018-12-31T02:52:24.101Z,14.93
2018-12-31T02:54:52.692Z,15.57
2018-12-31T02:57:21.248Z,16.83
2018-12-31T02:59:49.838Z,16.27
2018-12-31T03:02:18.396Z,15.93
2018-12-31T03:04:46.993Z,15.10
2018-12-31T03:07:15.552Z,15.73
2018-12-31T03:09:44.148Z,16.93
2018-12-31T03:12:12.713Z,16.13
2018-12-31T03:14:41.302Z,17.23
2018-12-31T03:17:09.864Z,16.27
2018-12-31T03:19:38.453Z,16.93
2018-12-31T03:22:07.021Z,15.80
2018-12-31T03:24:35.613Z,17.33
2018-12-31T03:27:04.180Z,16.27
2018-12-31T03:29:32.764Z,16.83
2018-12-31T03:32:01.325Z,17.87
2018-12-31T03:34:29.912Z,17.23
2018-12-31T03:36:58.473Z,16.17
2018-12-31T03:39:27.119Z,16.37
2018-12-31T03:41:55.620Z,16.87
2018-12-31T03:44:24.208Z,15.87
2018-12-31T03:46:52.772Z,15.93
2018-12-31T03:49:21.359Z,14.80
2018-12-31T03:51:49.917Z,16.80
2018-12-31T03:54:18.506Z,17.53
2018-12-31T03:56:47.073Z,16.10
2018-12-31T03:59:15.656Z,15.33
2018-12-31T04:01:44.238Z,16.87
2018-12-31T04:04:12.830Z,15.90
2018-12-31T04:06:41.398Z,15.83
2018-12-31T04:09:10.026Z,14.13
2018-12-31T04:11:38.621Z,15.47
2018-12-31T04:14:07.179Z,14.17
2018-12-31T04:16:35.772Z,14.30
2018-12-31T04:19:04.342Z,14.00
2018-12-31T04:21:32.933Z,13.80
2018-12-31T04:24:01.553Z,13.87
2018-12-31T04:26:30.096Z,14.03
2018-12-31T04:28:58.649Z,13.40
2018-12-31T04:31:27.242Z,12.67
2018-12-31T04:33:55.793Z,12.93
2018-12-31T04:36:24.377Z,11.63
2018-12-31T04:38:52.945Z,11.47
2018-12-31T04:41:21.533Z,10.37
2018-12-31T04:43:50.093Z,10.70
2018-12-31T04:46:18.684Z,10.50
2018-12-31T04:48:47.241Z,9.50
2018-12-31T04:51:15.835Z,9.60
2018-12-31T04:53:44.394Z,10.00
2018-12-31T04:56:12.975Z,9.07
2018-12-31T04:58:41.530Z,8.70
2018-12-31T05:01:12.793Z,8.63
2018-12-31T05:03:41.352Z,8.53
2018-12-31T05:06:09.940Z,9.33
2018-12-31T05:08:38.499Z,9.57
2018-12-31T05:11:07.081Z,8.80
2018-12-31T05:13:35.645Z,10.20
2018-12-31T05:16:06.162Z,10.40
2018-12-31T05:18:34.737Z,10.30
2018-12-31T05:21:03.467Z,10.23
2018-12-31T05:23:32.008Z,10.20
2018-12-31T05:26:00.568Z,11.10
2018-12-31T05:28:29.177Z,10.87
2018-12-31T05:30:57.720Z,11.30
2018-12-31T05:33:26.312Z,12.23
2018-12-31T05:35:54.876Z,12.00
2018-12-31T05:38:23.579Z,12.43
2018-12-31T05:40:52.133Z,12.30
2018-12-31T05:43:20.722Z,12.57
2018-12-31T05:45:49.280Z,12.93
2018-12-31T05:48:17.924Z,13.13
2018-12-31T05:50:46.559Z,13.27
2018-12-31T05:53:15.120Z,13.40
2018-12-31T05:55:43.680Z,14.17
2018-12-31T05:58:12.270Z,14.13
2018-12-31T06:00:42.124Z,13.37
2018-12-31T06:03:10.819Z,13.60
2018-12-31T06:05:39.384Z,13.70
2018-12-31T06:08:07.972Z,12.57
2018-12-31T06:10:36.533Z,13.03
2018-12-31T06:13:05.116Z,14.53
2018-12-31T06:15:33.672Z,14.63
2018-12-31T06:18:02.265Z,15.60
2018-12-31T06:20:30.821Z,13.57
2018-12-31T06:22:59.417Z,13.70
2018-12-31T06:25:27.981Z,13.60
2018-12-31T06:27:56.577Z,14.20
2018-12-31T06:30:25.145Z,15.97
2018-12-31T06:32:53.702Z,14.17
2018-12-31T06:35:22.296Z,14.93
2018-12-31T06:37:50.849Z,15.13
2018-12-31T06:40:19.439Z,15.00
2018-12-31T06:42:48.075Z,16.33
2018-12-31T06:45:16.592Z,15.33
2018-12-31T06:47:45.153Z,15.20
2018-12-31T06:50:13.737Z,16.67
2018-12-31T06:52:42.301Z,15.00
2018-12-31T06:55:10.890Z,15.13
2018-12-31T06:57:39.453Z,14.83
2018-12-31T07:00:08.380Z,14.67
2018-12-31T07:02:36.949Z,14.90
2018-12-31T07:05:05.665Z,14.80
2018-12-31T07:07:34.220Z,13.70
2018-12-31T07:10:02.821Z,14.07
2018-12-31T07:12:31.379Z,13.87
2018-12-31T07:14:59.964Z,14.23
2018-12-31T07:17:28.525Z,14.50
2018-12-31T07:19:57.110Z,14.00
2018-12-31T07:22:25.679Z,13.47
2018-12-31T07:24:54.261Z,13.83
2018-12-31T07:27:22.827Z,14.50
2018-12-31T07:29:51.479Z,13.87
2018-12-31T07:32:20.045Z,13.97
2018-12-31T07:34:48.636Z,14.90
2018-12-31T07:37:17.201Z,14.17
2018-12-31T07:39:45.797Z,13.30
2018-12-31T07:42:14.340Z,13.13
2018-12-31T07:44:42.906Z,12.77
2018-12-31T07:47:11.491Z,12.53
2018-12-31T07:49:40.072Z,12.00
2018-12-31T07:52:08.753Z,12.37
2018-12-31T07:54:37.312Z,11.77
2018-12-31T07:57:05.896Z,12.07
2018-12-31T07:59:34.460Z,12.37
2018-12-31T08:02:03.061Z,12.03
2018-12-31T08:04:31.621Z,12.60
2018-12-31T08:07:00.204Z,12.37
2018-12-31T08:09:28.761Z,12.13
2018-12-31T08:11:57.353Z,11.07
2018-12-31T08:14:25.918Z,11.90
2018-12-31T08:16:54.500Z,12.33
2018-12-31T08:19:23.068Z,11.90
2018-12-31T08:21:51.733Z,12.93
2018-12-31T08:24:20.301Z,11.73
2018-12-31T08:26:48.901Z,12.63
2018-12-31T08:29:17.470Z,12.47
2018-12-31T08:31:46.051Z,13.27
2018-12-31T08:34:14.621Z,14.03
2018-12-31T08:36:43.205Z,12.97
2018-12-31T08:39:11.756Z,12.57
2018-12-31T08:41:40.349Z,13.47
2018-12-31T08:44:08.905Z,15.10
2018-12-31T08:46:37.493Z,14.37
2018-12-31T08:49:06.049Z,14.37
2018-12-31T08:51:34.654Z,14.13
2018-12-31T08:54:03.205Z,14.37
2018-12-31T08:56:31.783Z,15.57
2018-12-31T08:59:00.368Z,14.33
2018-12-31T09:01:28.920Z,15.90
2018-12-31T09:03:57.513Z,15.53
2018-12-31T09:06:26.073Z,15.93
2018-12-31T09:08:54.660Z,16.00
2018-12-31T09:11:23.228Z,17.47
2018-12-31T09:13:51.816Z,16.17
2018-12-31T09:16:20.377Z,15.80
2018-12-31T09:18:48.968Z,15.80
2018-12-31T09:21:17.525Z,15.20
2018-12-31T09:23:46.115Z,14.50
2018-12-31T09:26:14.676Z,14.03
2018-12-31T09:28:43.263Z,13.97
2018-12-31T09:31:11.826Z,15.53
2018-12-31T09:33:40.425Z,16.30
2018-12-31T09:36:08.977Z,15.57
2018-12-31T09:38:37.558Z,15.20
2018-12-31T09:41:06.112Z,14.23
2018-12-31T09:43:34.704Z,16.07
2018-12-31T09:46:03.263Z,15.03
2018-12-31T09:48:31.855Z,14.57
2018-12-31T09:51:00.412Z,15.37
2018-12-31T09:53:28.998Z,15.33
2018-12-31T09:55:57.552Z,15.13
2018-12-31T09:58:26.105Z,15.13
2018-12-31T10:00:54.764Z,13.90
2018-12-31T10:03:23.319Z,13.27
2018-12-31T10:05:51.912Z,13.83
2018-12-31T10:08:20.464Z,14.23
2018-12-31T10:10:49.056Z,13.70
2018-12-31T10:13:17.616Z,13.47
2018-12-31T10:15:46.272Z,13.20
2018-12-31T10:18:14.832Z,13.40
2018-12-31T10:20:43.421Z,14.03
2018-12-31T10:23:11.980Z,14.97
2018-12-31T10:25:40.589Z,14.20
2018-12-31T10:28:09.128Z,14.67
2018-12-31T10:30:37.717Z,12.90
2018-12-31T10:33:06.285Z,13.50
2018-12-31T10:35:34.868Z,12.83
2018-12-31T10:38:03.425Z,13.27
2018-12-31T10:40:32.077Z,12.13
2018-12-31T10:43:00.635Z,12.13
2018-12-31T10:45:29.225Z,12.97
2018-12-31T10:47:57.783Z,11.77
2018-12-31T10:50:26.379Z,12.40
2018-12-31T10:52:54.932Z,12.37
2018-12-31T10:55:23.596Z,11.13
2018-12-31T10:57:52.145Z,12.07
2018-12-31T11:00:22.104Z,12.83
2018-12-31T11:02:50.736Z,13.57
2018-12-31T11:05:19.325Z,12.90
2018-12-31T11:07:47.879Z,13.50
2018-12-31T11:10:16.532Z,12.37
2018-12-31T11:12:45.087Z,12.07
2018-12-31T11:15:13.680Z,11.43
2018-12-31T11:17:42.249Z,12.60
2018-12-31T11:20:10.835Z,12.67
2018-12-31T11:22:39.392Z,15.33
2018-12-31T11:25:07.988Z,15.27
2018-12-31T11:27:36.544Z,24.03
2018-12-31T11:30:05.973Z,13.07
2018-12-31T11:32:35.399Z,12.33
2018-12-31T11:35:04.061Z,12.27
2018-12-31T11:37:34.813Z,11.77
2018-12-31T11:40:02.889Z,10.90
2018-12-31T11:42:31.465Z,12.50
2018-12-31T11:45:00.020Z,14.53
2018-12-31T11:47:28.620Z,12.37
2018-12-31T11:49:57.164Z,11.80
2018-12-31T11:52:25.757Z,12.20
2018-12-31T11:54:54.313Z,11.77
2018-12-31T11:57:22.905Z,11.93
2018-12-31T11:59:51.608Z,12.07
2018-12-31T12:02:23.621Z,11.73
2018-12-31T12:04:50.448Z,12.73
2018-12-31T12:07:19.045Z,12.80
2018-12-31T12:09:47.604Z,12.57
2018-12-31T12:12:16.198Z,12.77
2018-12-31T12:14:44.747Z,14.50
2018-12-31T12:17:13.340Z,13.40
2018-12-31T12:19:41.898Z,13.63
2018-12-31T12:22:10.494Z,13.10
2018-12-31T12:24:39.049Z,12.90
2018-12-31T12:27:07.645Z,14.70
2018-12-31T12:29:36.204Z,13.90
2018-12-31T12:32:04.789Z,13.70
2018-12-31T12:34:33.343Z,13.37
2018-12-31T12:37:01.923Z,13.10
2018-12-31T12:39:30.493Z,13.13
2018-12-31T12:41:59.105Z,12.83
2018-12-31T12:44:27.660Z,12.83
2018-12-31T12:46:56.257Z,13.13
2018-12-31T12:49:24.812Z,11.80
2018-12-31T12:51:53.474Z,12.47
2018-12-31T12:54:22.060Z,13.77
2018-12-31T12:56:50.616Z,14.37
2018-12-31T12:59:19.209Z,13.63
2018-12-31T13:01:47.756Z,13.63
2018-12-31T13:04:16.615Z,13.50
2018-12-31T13:06:45.176Z,12.20
2018-12-31T13:09:13.755Z,13.33
2018-12-31T13:11:42.317Z,12.93
2018-12-31T13:14:12.211Z,12.57
2018-12-31T13:16:40.965Z,12.23
2018-12-31T13:19:09.556Z,12.47
2018-12-31T13:21:38.114Z,13.93
2018-12-31T13:24:06.697Z,14.30
2018-12-31T13:26:35.326Z,13.90
2018-12-31T13:29:05.695Z,14.57
2018-12-31T13:31:34.257Z,14.23
2018-12-31T13:34:02.975Z,13.17
2018-12-31T13:36:31.525Z,14.40
2018-12-31T13:39:00.112Z,12.57
2018-12-31T13:41:29.085Z,14.63
2018-12-31T13:43:57.668Z,13.77
2018-12-31T13:46:26.228Z,12.43
2018-12-31T13:48:54.809Z,13.90
2018-12-31T13:51:23.368Z,14.27
2018-12-31T13:53:52.254Z,12.80
2018-12-31T13:56:20.817Z,13.97
2018-12-31T13:58:49.397Z,13.57
2018-12-31T14:01:17.956Z,15.43
2018-12-31T14:03:46.545Z,13.77
2018-12-31T14:06:15.408Z,14.60
2018-12-31T14:08:43.988Z,15.70
2018-12-31T14:11:12.544Z,14.93
2018-12-31T14:13:41.101Z,14.77
2018-12-31T14:16:09.683Z,15.07
2018-12-31T14:18:38.544Z,15.83
2018-12-31T14:21:07.129Z,15.63
2018-12-31T14:23:35.693Z,15.87
2018-12-31T14:26:04.352Z,15.87
2018-12-31T14:28:32.907Z,15.27
2018-12-31T14:31:01.487Z,15.67
2018-12-31T14:33:30.054Z,15.43
2018-12-31T14:35:58.637Z,15.57
2018-12-31T14:38:27.188Z,16.23
2018-12-31T14:40:55.772Z,17.80
2018-12-31T14:43:24.328Z,17.57
2018-12-31T14:45:52.922Z,17.70
2018-12-31T14:48:21.496Z,18.30
2018-12-31T14:50:50.079Z,17.37
2018-12-31T14:53:18.636Z,15.37
2018-12-31T14:55:47.496Z,15.00
2018-12-31T14:58:16.050Z,15.30
2018-12-31T15:00:44.640Z,15.23
2018-12-31T15:03:13.197Z,14.87
2018-12-31T15:05:41.785Z,14.33
2018-12-31T15:08:10.340Z,14.33
2018-12-31T15:10:38.932Z,15.83
2018-12-31T15:13:07.488Z,15.20
2018-12-31T15:15:36.077Z,14.63
2018-12-31T15:18:04.708Z,13.77
2018-12-31T15:20:33.317Z,13.07
2018-12-31T15:23:02.072Z,15.57
2018-12-31T15:25:30.627Z,17.60
2018-12-31T15:27:59.216Z,17.67
2018-12-31T15:30:27.776Z,17.20
2018-12-31T15:32:56.365Z,16.17
2018-12-31T15:35:25.224Z,15.53
2018-12-31T15:37:53.812Z,16.93
2018-12-31T15:40:22.372Z,27.20
2018-12-31T15:42:50.965Z,18.90
2018-12-31T15:45:19.520Z,24.03
2018-12-31T15:47:48.108Z,20.33
2018-12-31T15:50:16.672Z,18.03
2018-12-31T15:52:45.261Z,16.10
2018-12-31T15:55:13.816Z,17.10
2018-12-31T15:57:42.401Z,16.47
2018-12-31T16:00:11.026Z,16.53
2018-12-31T16:02:39.609Z,17.70
2018-12-31T16:05:08.237Z,18.10
2018-12-31T16:07:36.829Z,21.80
2018-12-31T16:10:06.120Z,18.83
2018-12-31T16:12:34.709Z,18.30
2018-12-31T16:15:03.336Z,21.97
2018-12-31T16:17:31.920Z,18.30
2018-12-31T16:20:00.478Z,20.40
2018-12-31T16:22:29.068Z,22.80
2018-12-31T16:24:57.625Z,21.60
2018-12-31T16:27:26.446Z,15.80
2018-12-31T16:29:55.006Z,14.50
2018-12-31T16:32:23.597Z,15.57
2018-12-31T16:34:52.145Z,16.53
2018-12-31T16:37:20.741Z,15.40
2018-12-31T16:39:49.606Z,16.47
2018-12-31T16:42:18.189Z,39.23
2018-12-31T16:44:46.747Z,25.77
2018-12-31T16:47:15.341Z,19.23
2018-12-31T16:49:43.901Z,21.33
2018-12-31T16:52:12.455Z,28.97
2018-12-31T16:54:41.305Z,61.87
2018-12-31T16:57:09.860Z,39.93
2018-12-31T16:59:38.457Z,33.60
2018-12-31T17:02:08.136Z,31.53
2018-12-31T17:04:36.800Z,24.87
2018-12-31T17:07:05.405Z,20.27
2018-12-31T17:09:33.963Z,18.03
2018-12-31T17:12:02.516Z,14.87
2018-12-31T17:14:31.100Z,15.70
2018-12-31T17:16:59.660Z,16.47
2018-12-31T17:19:28.557Z,16.50
2018-12-31T17:21:57.108Z,17.40
2018-12-31T17:24:25.699Z,16.57
2018-12-31T17:26:54.261Z,15.17
2018-12-31T17:29:22.854Z,15.83
2018-12-31T17:31:51.710Z,18.57
2018-12-31T17:34:20.306Z,14.87
2018-12-31T17:36:48.866Z,14.37
2018-12-31T17:39:17.448Z,15.00
2018-12-31T17:41:46.004Z,17.53
2018-12-31T17:44:14.602Z,17.23
2018-12-31T17:46:43.158Z,16.27
2018-12-31T17:49:11.741Z,14.20
2018-12-31T17:51:40.303Z,15.33
2018-12-31T17:54:08.892Z,36.57
2018-12-31T17:56:37.458Z,19.83
2018-12-31T17:59:06.038Z,13.57
2018-12-31T18:01:34.592Z,14.13
2018-12-31T18:04:03.181Z,17.03
2018-12-31T18:06:31.741Z,17.03
2018-12-31T18:09:00.399Z,16.60
2018-12-31T18:11:29.155Z,17.10
2018-12-31T18:13:57.713Z,18.07
2018-12-31T18:16:26.296Z,18.60
2018-12-31T18:18:54.853Z,18.30
2018-12-31T18:21:23.449Z,18.70
2018-12-31T18:23:52.297Z,18.33
2018-12-31T18:26:20.884Z,18.47
2018-12-31T18:28:49.452Z,19.27
2018-12-31T18:31:18.047Z,20.77
2018-12-31T18:33:46.602Z,24.27
2018-12-31T18:36:15.200Z,22.83
2018-12-31T18:38:44.011Z,23.57
2018-12-31T18:41:12.601Z,24.60
2018-12-31T18:43:41.172Z,23.83
2018-12-31T18:46:09.760Z,21.27
2018-12-31T18:48:38.394Z,25.80
2018-12-31T18:51:06.981Z,30.07
2018-12-31T18:53:35.540Z,28.47
2018-12-31T18:56:04.123Z,37.07
2018-12-31T18:58:32.690Z,41.23
2018-12-31T19:01:01.274Z,39.47
2018-12-31T19:03:30.029Z,34.23
2018-12-31T19:05:58.623Z,28.50
2018-12-31T19:08:27.180Z,22.50
2018-12-31T19:10:55.769Z,22.77
2018-12-31T19:13:24.328Z,26.60
2018-12-31T19:15:53.124Z,22.90
2018-12-31T19:18:21.676Z,22.93
2018-12-31T19:20:50.265Z,24.77
2018-12-31T19:23:18.820Z,23.40
2018-12-31T19:25:47.410Z,28.43
2018-12-31T19:28:15.959Z,27.57
2018-12-31T19:30:44.530Z,26.37
2018-12-31T19:33:13.109Z,22.90
2018-12-31T19:35:41.664Z,24.83
2018-12-31T19:38:10.291Z,27.63
2018-12-31T19:40:38.844Z,34.80
2018-12-31T19:43:07.628Z,34.87
2018-12-31T19:45:36.184Z,27.47
2018-12-31T19:48:04.763Z,26.93
2018-12-31T19:50:33.316Z,29.57
2018-12-31T19:53:01.918Z,28.70
2018-12-31T19:55:30.772Z,26.30
2018-12-31T19:57:59.360Z,26.60
2018-12-31T20:00:27.923Z,44.83
2018-12-31T20:02:56.500Z,44.30
2018-12-31T20:05:25.056Z,36.30
2018-12-31T20:07:53.649Z,34.30
2018-12-31T20:10:23.580Z,33.37
2018-12-31T20:12:52.189Z,29.83
2018-12-31T20:15:20.747Z,28.50
2018-12-31T20:17:49.533Z,36.63
2018-12-31T20:20:18.084Z,34.90
2018-12-31T20:22:46.669Z,38.60
2018-12-31T20:25:15.228Z,43.40
2018-12-31T20:27:43.811Z,42.97
2018-12-31T20:30:12.370Z,42.70
2018-12-31T20:32:40.956Z,29.43
2018-12-31T20:35:09.512Z,34.27
2018-12-31T20:37:38.071Z,38.27
2018-12-31T20:40:07.029Z,35.00
2018-12-31T20:42:35.581Z,26.73
2018-12-31T20:45:04.915Z,29.83
2018-12-31T20:47:33.472Z,29.93
2018-12-31T20:50:02.426Z,29.30
2018-12-31T20:52:30.982Z,31.60
2018-12-31T20:54:59.568Z,29.90
2018-12-31T20:57:28.188Z,28.63
2018-12-31T20:59:56.782Z,28.77
2018-12-31T21:02:25.341Z,28.30
2018-12-31T21:04:53.933Z,26.30
2018-12-31T21:07:22.492Z,25.90
2018-12-31T21:09:51.150Z,24.87
2018-12-31T21:12:19.709Z,24.13
2018-12-31T21:14:48.300Z,25.00
2018-12-31T21:17:16.960Z,24.00
2018-12-31T21:19:45.548Z,30.80
2018-12-31T21:22:14.107Z,32.37
2018-12-31T21:24:42.696Z,31.67
2018-12-31T21:27:11.254Z,37.73
2018-12-31T21:29:39.853Z,39.33
2018-12-31T21:32:08.409Z,45.60
2018-12-31T21:34:36.992Z,35.27
2018-12-31T21:37:05.548Z,35.60
2018-12-31T21:39:34.133Z,31.67
2018-12-31T21:42:02.698Z,30.80
2018-12-31T21:44:31.480Z,31.50
2018-12-31T21:47:00.041Z,32.27
2018-12-31T21:49:28.630Z,44.50
2018-12-31T21:51:57.188Z,34.77
2018-12-31T21:54:25.779Z,35.23
2018-12-31T21:56:54.333Z,36.00
2018-12-31T21:59:22.897Z,38.93
2018-12-31T22:01:51.480Z,86.83
2018-12-31T22:04:20.049Z,120.40
2018-12-31T22:06:48.628Z,79.63
2018-12-31T22:09:17.192Z,69.67
2018-12-31T22:11:45.978Z,56.07
2018-12-31T22:14:14.540Z,39.00
2018-12-31T22:16:43.120Z,37.37
2018-12-31T22:19:11.676Z,39.73
2018-12-31T22:21:40.270Z,39.13
2018-12-31T22:24:09.228Z,36.37
2018-12-31T22:26:37.821Z,36.60
2018-12-31T22:29:06.373Z,39.27
2018-12-31T22:31:34.961Z,37.40
2018-12-31T22:34:03.584Z,37.63
2018-12-31T22:36:32.168Z,35.70
2018-12-31T22:39:00.726Z,36.77
2018-12-31T22:41:29.325Z,35.83
2018-12-31T22:43:57.881Z,37.87
2018-12-31T22:46:26.472Z,37.33
2018-12-31T22:48:55.029Z,35.07
2018-12-31T22:51:23.832Z,36.30
2018-12-31T22:53:52.382Z,51.17
2018-12-31T22:56:20.977Z,57.57
2018-12-31T22:58:49.538Z,49.63
2018-12-31T23:01:18.262Z,39.37
2018-12-31T23:03:47.017Z,38.53
2018-12-31T23:06:15.668Z,41.93
2018-12-31T23:08:44.172Z,33.43
2018-12-31T23:11:12.770Z,221.50
2018-12-31T23:13:41.331Z,186.30
2018-12-31T23:16:10.234Z,227.00
2018-12-31T23:18:38.796Z,264.47
2018-12-31T23:21:07.396Z,270.40
2018-12-31T23:23:35.957Z,274.40
2018-12-31T23:26:04.553Z,254.43
2018-12-31T23:28:33.115Z,231.97
2018-12-31T23:31:01.708Z,240.40
2018-12-31T23:33:30.273Z,222.27
2018-12-31T23:35:58.844Z,208.73
2018-12-31T23:38:27.436Z,218.83
2018-12-31T23:40:56.001Z,231.80
2018-12-31T23:43:24.798Z,173.37
2018-12-31T23:45:53.359Z,176.87
2018-12-31T23:48:21.948Z,197.27
2018-12-31T23:50:50.512Z,198.00
2018-12-31T23:53:19.104Z,195.30
2018-12-31T23:55:47.941Z,189.40
2018-12-31T23:58:16.542Z,187.20
